createdAt,value
2022-10-13T00:01:41.536Z,9.89
2022-10-13T00:04:11.091Z,9.95
2022-10-13T00:06:41.251Z,9.97
2022-10-13T00:09:10.764Z,9.99
2022-10-13T00:11:42.933Z,10.04
2022-10-13T00:14:12.699Z,10.05
2022-10-13T00:16:42.508Z,10.08
2022-10-13T00:19:15.053Z,10.09
2022-10-13T00:21:44.850Z,10.12
2022-10-13T00:24:14.694Z,10.10
2022-10-13T00:26:46.899Z,10.07
2022-10-13T00:29:21.852Z,10.03
2022-10-13T00:31:52.037Z,9.99
2022-10-13T00:34:21.637Z,9.96
2022-10-13T00:36:51.212Z,9.94
2022-10-13T00:39:20.997Z,9.93
2022-10-13T00:41:54.490Z,9.92
2022-10-13T00:44:54.146Z,9.91
2022-10-13T00:47:24.018Z,9.86
2022-10-13T00:49:54.054Z,9.85
2022-10-13T00:52:24.393Z,9.83
2022-10-13T00:54:54.045Z,9.81
2022-10-13T00:57:26.418Z,9.79
2022-10-13T00:59:56.028Z,9.77
2022-10-13T01:02:26.682Z,9.76
2022-10-13T01:04:57.340Z,9.75
2022-10-13T01:07:27.022Z,9.76
2022-10-13T01:09:56.714Z,9.78
2022-10-13T01:12:40.105Z,9.80
2022-10-13T01:15:13.297Z,9.81
2022-10-13T01:17:50.771Z,9.83
2022-10-13T01:20:47.897Z,9.83
2022-10-13T01:23:40.861Z,9.82
2022-10-13T01:26:26.627Z,9.80
2022-10-13T01:29:15.582Z,9.78
2022-10-13T01:31:50.550Z,9.76
2022-10-13T01:34:24.891Z,9.75
2022-10-13T01:36:59.463Z,9.74
2022-10-13T01:39:38.214Z,9.73
2022-10-13T01:42:13.268Z,9.74
2022-10-13T01:44:46.244Z,9.74
2022-10-13T01:47:18.668Z,9.76
2022-10-13T01:49:49.064Z,9.76
2022-10-13T01:52:21.154Z,9.76
2022-10-13T01:54:53.281Z,9.77
2022-10-13T01:57:34.533Z,9.81
2022-10-13T02:00:07.602Z,9.82
2022-10-13T02:02:56.908Z,9.83
2022-10-13T02:05:34.939Z,9.85
2022-10-13T02:08:07.524Z,9.89
2022-10-13T02:10:43.061Z,9.94
2022-10-13T02:13:14.502Z,10.04
2022-10-13T02:15:47.773Z,10.11
2022-10-13T02:18:22.346Z,10.16
2022-10-13T02:20:52.144Z,10.18
2022-10-13T02:23:22.094Z,10.16
2022-10-13T02:25:52.717Z,10.15
2022-10-13T02:28:22.919Z,10.16
2022-10-13T02:30:52.722Z,10.16
2022-10-13T02:33:24.971Z,10.16
2022-10-13T02:35:54.596Z,10.19
2022-10-13T02:38:24.141Z,10.21
2022-10-13T02:40:54.898Z,10.26
2022-10-13T02:43:25.142Z,10.30
2022-10-13T02:45:54.710Z,10.35
2022-10-13T02:48:26.832Z,10.40
2022-10-13T02:50:56.485Z,10.43
2022-10-13T02:53:26.132Z,10.43
2022-10-13T02:55:56.486Z,10.41
2022-10-13T02:58:28.171Z,10.37
2022-10-13T03:00:57.934Z,10.33
2022-10-13T03:03:30.724Z,10.29
2022-10-13T03:06:00.924Z,10.26
2022-10-13T03:08:31.851Z,10.25
2022-10-13T03:11:01.591Z,10.25
2022-10-13T03:13:31.204Z,10.24
2022-10-13T03:16:09.739Z,10.25
2022-10-13T03:18:41.956Z,10.25
2022-10-13T03:21:13.140Z,10.26
2022-10-13T03:23:42.974Z,10.28
2022-10-13T03:26:12.727Z,10.30
2022-10-13T03:28:42.370Z,10.33
2022-10-13T03:31:13.796Z,10.36
2022-10-13T03:33:46.417Z,10.35
2022-10-13T03:36:16.129Z,10.35
2022-10-13T03:38:48.518Z,10.33
2022-10-13T03:41:19.719Z,10.32
2022-10-13T03:43:52.603Z,10.32
2022-10-13T03:46:22.293Z,10.33
2022-10-13T03:48:54.520Z,10.34
2022-10-13T03:51:24.996Z,10.35
2022-10-13T03:53:55.290Z,10.36
2022-10-13T03:56:26.673Z,10.35
2022-10-13T03:58:56.746Z,10.35
2022-10-13T04:01:28.239Z,10.35
2022-10-13T04:04:02.273Z,10.35
2022-10-13T04:06:32.520Z,10.32
2022-10-13T04:09:02.224Z,10.31
2022-10-13T04:11:32.091Z,10.32
2022-10-13T04:14:02.498Z,10.33
2022-10-13T04:16:33.449Z,10.33
2022-10-13T04:19:08.453Z,10.33
2022-10-13T04:21:38.297Z,10.33
2022-10-13T04:24:09.136Z,10.32
2022-10-13T04:26:39.161Z,10.32
2022-10-13T04:29:13.165Z,10.33
2022-10-13T04:31:44.511Z,10.32
2022-10-13T04:34:16.660Z,10.30
2022-10-13T04:36:46.353Z,10.28
2022-10-13T04:39:15.932Z,10.27
2022-10-13T04:41:45.670Z,10.26
2022-10-13T04:44:15.422Z,10.27
2022-10-13T04:46:45.020Z,10.27
2022-10-13T04:49:17.450Z,10.29
2022-10-13T04:51:47.065Z,10.33
2022-10-13T04:54:16.591Z,10.38
2022-10-13T04:56:47.344Z,10.42
2022-10-13T04:59:16.931Z,10.45
2022-10-13T05:01:46.531Z,10.48
2022-10-13T05:04:18.702Z,10.51
2022-10-13T05:07:15.946Z,10.50
2022-10-13T05:09:38.125Z,10.48
2022-10-13T05:12:13.350Z,10.47
2022-10-13T05:14:42.995Z,10.49
2022-10-13T05:17:12.788Z,10.50
2022-10-13T05:19:44.968Z,10.49
2022-10-13T05:22:14.665Z,10.48
2022-10-13T05:24:44.698Z,10.49
2022-10-13T05:27:15.600Z,10.52
2022-10-13T05:29:45.439Z,10.55
2022-10-13T05:32:15.019Z,10.57
2022-10-13T05:34:47.239Z,10.56
2022-10-13T05:37:17.147Z,10.55
2022-10-13T05:39:48.862Z,10.52
2022-10-13T05:42:19.039Z,10.49
2022-10-13T05:44:49.106Z,10.51
2022-10-13T05:47:18.912Z,10.53
2022-10-13T05:49:51.053Z,10.56
2022-10-13T05:52:21.082Z,10.60
2022-10-13T05:54:56.640Z,10.63
2022-10-13T05:57:28.950Z,10.62
2022-10-13T06:00:01.457Z,10.62
2022-10-13T06:02:35.022Z,10.60
2022-10-13T06:05:09.015Z,10.58
2022-10-13T06:07:38.581Z,10.58
2022-10-13T06:10:09.457Z,10.59
2022-10-13T06:12:39.169Z,10.59
2022-10-13T06:15:10.033Z,10.57
2022-10-13T06:17:40.704Z,10.56
2022-10-13T06:20:13.959Z,10.56
2022-10-13T06:22:43.515Z,10.55
2022-10-13T06:25:14.330Z,10.55
2022-10-13T06:27:43.917Z,10.55
2022-10-13T06:30:14.234Z,10.57
2022-10-13T06:32:43.863Z,10.58
2022-10-13T06:35:16.150Z,10.60
2022-10-13T06:37:48.619Z,10.60
2022-10-13T06:40:18.559Z,10.64
2022-10-13T06:42:52.564Z,10.65
2022-10-13T06:45:27.814Z,10.67
2022-10-13T06:47:57.774Z,10.67
2022-10-13T06:50:32.220Z,10.69
2022-10-13T06:53:01.846Z,10.69
2022-10-13T06:55:32.931Z,10.70
2022-10-13T06:58:02.911Z,10.72
2022-10-13T07:00:32.839Z,10.74
2022-10-13T07:03:02.472Z,10.79
2022-10-13T07:05:34.899Z,10.86
2022-10-13T07:08:04.562Z,10.90
2022-10-13T07:10:34.135Z,10.96
2022-10-13T07:13:03.749Z,11.00
2022-10-13T07:15:34.061Z,11.08
2022-10-13T07:18:03.644Z,11.15
2022-10-13T07:20:36.215Z,11.25
2022-10-13T07:23:05.924Z,11.38
2022-10-13T07:25:35.551Z,11.55
2022-10-13T07:28:06.029Z,11.79
2022-10-13T07:30:37.051Z,12.10
2022-10-13T07:33:06.819Z,12.34
2022-10-13T07:35:41.303Z,12.49
2022-10-13T07:38:11.817Z,12.59
2022-10-13T07:40:44.063Z,12.68
2022-10-13T07:43:13.680Z,12.73
2022-10-13T07:45:43.280Z,12.76
2022-10-13T07:48:12.890Z,12.76
2022-10-13T07:50:45.101Z,12.77
2022-10-13T07:53:15.121Z,12.75
2022-10-13T07:55:44.769Z,12.75
2022-10-13T07:58:15.069Z,12.78
2022-10-13T08:00:44.921Z,12.83
2022-10-13T08:03:14.432Z,12.87
2022-10-13T08:05:46.597Z,12.91
2022-10-13T08:08:16.147Z,12.98
2022-10-13T08:10:45.785Z,13.11
2022-10-13T08:13:15.681Z,13.30
2022-10-13T08:15:46.692Z,13.61
2022-10-13T08:18:17.393Z,14.07
2022-10-13T08:20:49.626Z,14.64
2022-10-13T08:23:20.727Z,15.26
2022-10-13T08:25:53.132Z,15.95
2022-10-13T08:28:25.919Z,16.56
2022-10-13T08:30:57.787Z,16.84
2022-10-13T08:33:27.974Z,17.22
2022-10-13T08:36:00.283Z,17.40
2022-10-13T08:38:29.845Z,17.22
2022-10-13T08:40:59.417Z,16.90
2022-10-13T08:43:29.206Z,16.54
2022-10-13T08:46:02.559Z,16.27
2022-10-13T08:48:36.274Z,16.03
2022-10-13T08:51:09.632Z,15.81
2022-10-13T08:53:41.966Z,15.62
2022-10-13T08:56:16.729Z,15.49
2022-10-13T08:58:50.606Z,15.44
2022-10-13T09:01:23.744Z,15.38
2022-10-13T09:03:55.927Z,15.28
2022-10-13T09:06:31.792Z,15.20
2022-10-13T09:09:02.938Z,15.15
2022-10-13T09:11:34.617Z,15.17
2022-10-13T09:14:06.349Z,15.25
2022-10-13T09:16:38.452Z,15.28
2022-10-13T09:19:17.126Z,15.35
2022-10-13T09:21:49.342Z,15.48
2022-10-13T09:24:20.433Z,15.56
2022-10-13T09:26:52.672Z,15.66
2022-10-13T09:29:28.911Z,15.94
2022-10-13T09:32:12.719Z,16.60
2022-10-13T09:34:42.290Z,17.54
2022-10-13T09:37:23.434Z,18.43
2022-10-13T09:40:04.502Z,18.86
2022-10-13T09:42:35.012Z,18.93
2022-10-13T09:45:16.572Z,18.89
2022-10-13T09:47:52.470Z,18.84
2022-10-13T09:50:23.829Z,18.73
2022-10-13T09:52:56.423Z,18.62
2022-10-13T09:55:34.823Z,18.46
2022-10-13T09:58:08.657Z,18.25
2022-10-13T10:00:39.646Z,18.12
2022-10-13T10:03:13.483Z,18.04
2022-10-13T10:05:49.773Z,18.43
2022-10-13T10:08:33.386Z,18.83
2022-10-13T10:11:13.377Z,19.07
2022-10-13T10:13:43.252Z,19.25
2022-10-13T10:16:15.892Z,19.36
2022-10-13T10:18:51.914Z,19.36
2022-10-13T10:21:31.711Z,19.22
2022-10-13T10:24:09.351Z,19.05
2022-10-13T10:26:49.103Z,18.99
2022-10-13T10:29:25.238Z,18.88
2022-10-13T10:32:19.418Z,18.82
2022-10-13T10:34:53.960Z,18.76
2022-10-13T10:37:38.340Z,18.63
2022-10-13T10:40:17.163Z,18.53
2022-10-13T10:43:02.006Z,18.50
2022-10-13T10:45:34.535Z,18.40
2022-10-13T10:48:07.312Z,18.28
2022-10-13T10:50:37.519Z,18.16
2022-10-13T10:53:09.917Z,18.05
2022-10-13T10:55:48.659Z,17.92
2022-10-13T10:58:27.275Z,17.75
2022-10-13T11:01:01.987Z,17.57
2022-10-13T11:03:42.460Z,17.48
2022-10-13T11:06:27.643Z,17.43
2022-10-13T11:08:58.244Z,17.36
2022-10-13T11:11:51.140Z,17.33
2022-10-13T11:14:31.971Z,17.33
2022-10-13T11:17:20.753Z,17.38
2022-10-13T11:19:51.596Z,17.44
2022-10-13T11:22:23.956Z,17.54
2022-10-13T11:25:05.506Z,17.69
2022-10-13T11:27:49.655Z,17.86
2022-10-13T11:30:34.129Z,17.98
2022-10-13T11:33:09.338Z,18.04
2022-10-13T11:35:39.084Z,18.09
2022-10-13T11:38:26.895Z,18.10
2022-10-13T11:41:11.623Z,17.99
2022-10-13T11:43:51.769Z,17.85
2022-10-13T11:46:37.348Z,17.69
2022-10-13T11:49:42.701Z,17.55
2022-10-13T11:52:23.302Z,17.45
2022-10-13T11:54:58.296Z,17.37
2022-10-13T11:57:28.241Z,17.29
2022-10-13T12:00:00.397Z,17.22
2022-10-13T12:02:32.272Z,17.16
2022-10-13T12:05:03.843Z,17.09
2022-10-13T12:07:38.516Z,17.05
2022-10-13T12:10:10.962Z,16.97
2022-10-13T12:12:41.166Z,16.86
2022-10-13T12:15:37.960Z,16.82
2022-10-13T12:18:23.555Z,16.76
2022-10-13T12:20:57.193Z,16.75
2022-10-13T12:23:27.609Z,16.75
2022-10-13T12:26:00.061Z,16.72
2022-10-13T12:28:31.993Z,16.69
2022-10-13T12:31:10.132Z,16.63
2022-10-13T12:33:43.309Z,16.58
2022-10-13T12:36:16.341Z,16.52
2022-10-13T12:38:50.164Z,16.49
2022-10-13T12:41:20.472Z,16.49
2022-10-13T12:43:52.561Z,16.52
2022-10-13T12:46:43.528Z,16.61
2022-10-13T12:49:18.171Z,16.68
2022-10-13T12:51:50.862Z,16.73
2022-10-13T13:44:42.134Z,16.68
2022-10-13T13:47:20.391Z,16.58
2022-10-13T13:49:51.319Z,16.57
2022-10-13T13:52:21.883Z,16.56
2022-10-13T13:54:52.113Z,16.53
2022-10-13T13:57:22.615Z,16.48
2022-10-13T13:59:54.891Z,16.44
2022-10-13T14:02:24.575Z,16.41
2022-10-13T14:04:54.212Z,16.38
2022-10-13T14:07:24.710Z,16.33
2022-10-13T14:09:59.255Z,16.27
2022-10-13T14:12:32.020Z,16.20
2022-10-13T14:15:04.065Z,16.12
2022-10-13T14:17:34.449Z,16.06
2022-10-13T14:20:03.900Z,15.99
2022-10-13T14:22:40.515Z,15.93
2022-10-13T14:25:10.821Z,15.85
2022-10-13T14:27:40.309Z,15.79
2022-10-13T14:30:15.265Z,15.76
2022-10-13T14:32:44.957Z,15.71
2022-10-13T14:35:14.421Z,15.67
2022-10-13T14:37:43.854Z,15.62
2022-10-13T14:40:14.222Z,15.60
2022-10-13T14:42:43.800Z,15.57
2022-10-13T14:45:20.558Z,15.55
2022-10-13T14:47:49.979Z,15.53
2022-10-13T14:50:19.562Z,15.51
2022-10-13T14:52:54.657Z,15.48
2022-10-13T14:55:25.677Z,15.45
2022-10-13T14:57:55.121Z,15.39
2022-10-13T15:00:27.116Z,15.35
2022-10-13T15:02:56.595Z,15.30
2022-10-13T15:05:28.222Z,15.25
2022-10-13T15:07:57.685Z,15.21
2022-10-13T15:10:27.167Z,15.20
2022-10-13T15:12:57.069Z,15.19
2022-10-13T15:15:29.218Z,15.18
2022-10-13T15:17:58.783Z,15.17
2022-10-13T15:20:29.206Z,15.15
2022-10-13T15:22:58.753Z,15.11
2022-10-13T15:25:28.293Z,15.05
2022-10-13T15:27:57.879Z,15.01
2022-10-13T15:30:29.995Z,14.96
2022-10-13T15:32:59.569Z,14.91
2022-10-13T15:35:32.594Z,14.86
2022-10-13T15:38:02.142Z,14.80
2022-10-13T15:40:33.614Z,14.75
2022-10-13T15:43:03.376Z,14.68
2022-10-13T15:45:35.832Z,14.61
2022-10-13T15:48:05.769Z,14.54
2022-10-13T15:50:35.469Z,14.47
2022-10-13T15:53:05.071Z,14.41
2022-10-13T15:55:35.612Z,14.33
2022-10-13T15:58:07.799Z,14.28
2022-10-13T16:00:42.602Z,14.24
2022-10-13T16:03:16.501Z,14.20
2022-10-13T16:05:46.457Z,14.16
2022-10-13T16:08:16.892Z,14.13
2022-10-13T16:10:46.483Z,14.09
2022-10-13T16:13:17.611Z,14.06
2022-10-13T16:15:59.581Z,14.03
2022-10-13T16:18:31.840Z,14.01
2022-10-13T16:21:01.422Z,13.99
2022-10-13T16:23:30.975Z,13.96
2022-10-13T16:26:00.521Z,13.93
2022-10-13T16:28:31.198Z,13.89
2022-10-13T16:31:05.704Z,13.85
2022-10-13T16:33:37.489Z,13.81
2022-10-13T16:36:07.994Z,13.79
2022-10-13T16:38:37.780Z,13.77
2022-10-13T16:41:08.175Z,13.78
2022-10-13T16:43:37.884Z,13.78
2022-10-13T16:46:10.171Z,13.79
2022-10-13T16:48:39.702Z,13.79
2022-10-13T16:51:11.021Z,13.79
2022-10-13T16:53:41.231Z,13.79
2022-10-13T16:56:11.192Z,13.78
2022-10-13T16:58:44.917Z,13.73
2022-10-13T17:01:17.200Z,13.69
2022-10-13T17:03:47.915Z,13.64
2022-10-13T17:06:18.007Z,13.60
2022-10-13T17:08:47.520Z,13.56
2022-10-13T17:11:19.736Z,13.50
2022-10-13T17:13:49.555Z,13.48
2022-10-13T17:16:22.610Z,13.48
2022-10-13T17:18:52.159Z,13.46
2022-10-13T17:21:22.266Z,13.46
2022-10-13T17:23:52.088Z,13.46
2022-10-13T17:26:21.838Z,13.46
2022-10-13T17:28:51.491Z,13.46
2022-10-13T17:31:25.615Z,13.45
2022-10-13T17:33:55.372Z,13.45
2022-10-13T17:36:26.822Z,13.45
2022-10-13T17:38:58.280Z,13.48
2022-10-13T17:41:27.941Z,13.50
2022-10-13T17:43:57.452Z,13.52
2022-10-13T17:46:39.222Z,13.53
2022-10-13T17:49:09.893Z,13.51
2022-10-13T17:51:39.481Z,13.49
2022-10-13T17:54:15.325Z,13.47
2022-10-13T17:56:46.321Z,13.45
2022-10-13T17:59:16.144Z,13.44
2022-10-13T18:01:48.658Z,13.45
2022-10-13T18:04:22.304Z,13.45
2022-10-13T18:06:51.835Z,13.45
2022-10-13T18:09:23.542Z,13.46
2022-10-13T18:11:53.703Z,13.45
2022-10-13T18:14:24.525Z,13.44
2022-10-13T18:16:56.775Z,13.43
2022-10-13T18:19:26.366Z,13.37
2022-10-13T18:21:55.999Z,13.34
2022-10-13T18:24:25.524Z,13.29
2022-10-13T18:26:56.091Z,13.25
2022-10-13T18:29:26.915Z,13.20
2022-10-13T18:31:59.603Z,13.17
2022-10-13T18:34:29.166Z,13.13
2022-10-13T18:36:58.683Z,13.11
2022-10-13T18:39:30.080Z,13.10
2022-10-13T18:42:00.392Z,13.09
2022-10-13T18:44:36.802Z,13.10
2022-10-13T18:47:09.206Z,13.09
2022-10-13T18:49:38.741Z,13.09
2022-10-13T18:52:08.469Z,13.10
2022-10-13T18:54:41.691Z,13.10
2022-10-13T18:57:11.256Z,13.09
2022-10-13T18:59:40.945Z,13.08
2022-10-13T19:02:16.128Z,13.07
2022-10-13T19:04:45.673Z,13.07
2022-10-13T19:07:15.241Z,13.08
2022-10-13T19:09:44.796Z,13.08
2022-10-13T19:12:14.328Z,13.07
2022-10-13T19:14:43.849Z,13.08
2022-10-13T19:17:15.970Z,13.09
2022-10-13T19:19:46.235Z,13.10
2022-10-13T19:22:15.795Z,13.10
2022-10-13T19:24:45.348Z,13.11
2022-10-13T19:27:14.933Z,13.12
2022-10-13T19:29:44.476Z,13.12
2022-10-13T19:32:16.657Z,13.13
2022-10-13T19:34:46.239Z,13.14
2022-10-13T19:37:16.815Z,13.14
2022-10-13T19:39:46.375Z,13.13
2022-10-13T19:42:15.963Z,13.12
2022-10-13T19:44:45.523Z,13.10
2022-10-13T19:47:17.650Z,13.08
2022-10-13T19:49:47.315Z,13.07
2022-10-13T19:52:16.901Z,13.07
2022-10-13T19:54:46.452Z,13.07
2022-10-13T19:57:15.980Z,13.07
2022-10-13T19:59:47.828Z,13.07
2022-10-13T20:02:20.138Z,13.08
2022-10-13T20:04:49.781Z,13.06
2022-10-13T20:07:19.441Z,13.06
2022-10-13T20:09:49.361Z,13.06
2022-10-13T20:12:19.345Z,13.07
2022-10-13T20:14:49.191Z,13.05
2022-10-13T20:17:21.623Z,13.06
2022-10-13T20:19:55.513Z,13.04
2022-10-13T20:22:25.375Z,13.03
2022-10-13T20:24:54.900Z,13.00
2022-10-13T20:27:24.461Z,13.01
2022-10-13T20:29:54.026Z,13.00
2022-10-13T20:32:26.364Z,13.01
2022-10-13T20:34:55.910Z,13.00
2022-10-13T20:37:25.535Z,12.99
2022-10-13T20:39:55.350Z,13.00
2022-10-13T20:42:24.884Z,13.00
2022-10-13T20:44:54.474Z,13.00
2022-10-13T20:47:26.642Z,13.00
2022-10-13T20:49:56.158Z,13.01
2022-10-13T20:52:26.536Z,13.00
2022-10-13T20:54:56.071Z,13.01
2022-10-13T20:57:26.594Z,13.01
2022-10-13T20:59:57.161Z,13.01
2022-10-13T21:02:29.414Z,13.02
2022-10-13T21:04:58.949Z,13.00
2022-10-13T21:07:28.557Z,13.00
2022-10-13T21:09:58.107Z,13.00
2022-10-13T21:12:28.756Z,13.00
2022-10-13T21:14:58.301Z,13.00
2022-10-13T21:17:31.927Z,12.98
2022-10-13T21:20:01.761Z,12.98
2022-10-13T21:22:33.091Z,12.97
2022-10-13T21:25:02.626Z,12.96
2022-10-13T21:27:32.249Z,12.98
2022-10-13T21:30:01.780Z,12.99
2022-10-13T21:32:35.125Z,12.98
2022-10-13T21:35:04.673Z,12.98
2022-10-13T21:37:36.250Z,12.99
2022-10-13T21:40:05.832Z,13.00
2022-10-13T21:42:36.989Z,13.02
2022-10-13T21:45:07.219Z,13.00
2022-10-13T21:47:39.988Z,13.02
2022-10-13T21:50:10.665Z,13.02
2022-10-13T21:52:40.245Z,13.02
2022-10-13T21:55:10.833Z,13.00
2022-10-13T21:57:42.311Z,13.00
2022-10-13T22:00:13.161Z,13.00
2022-10-13T22:02:45.303Z,12.98
2022-10-13T22:05:15.144Z,12.97
2022-10-13T22:07:47.537Z,12.97
2022-10-13T22:10:17.139Z,12.97
2022-10-13T22:12:46.694Z,12.98
2022-10-13T22:15:16.307Z,12.97
2022-10-13T22:17:48.437Z,12.97
2022-10-13T22:20:18.513Z,12.96
2022-10-13T22:22:48.059Z,12.97
2022-10-13T22:25:18.225Z,12.97
2022-10-13T22:27:47.797Z,12.97
2022-10-13T22:30:17.333Z,12.96
2022-10-13T22:32:49.475Z,12.97
2022-10-13T22:35:19.039Z,12.97
2022-10-13T22:37:48.591Z,12.97
2022-10-13T22:40:18.344Z,12.94
2022-10-13T22:42:49.406Z,12.93
2022-10-13T22:45:18.969Z,12.91
2022-10-13T22:47:53.961Z,12.86
2022-10-13T22:50:23.467Z,12.80
2022-10-13T22:52:53.453Z,12.79
2022-10-13T22:55:22.977Z,12.78
2022-10-13T22:57:52.524Z,12.78
2022-10-13T23:00:22.214Z,12.78
2022-10-13T23:02:54.318Z,12.77
2022-10-13T23:05:23.886Z,12.78
2022-10-13T23:07:53.448Z,12.78
2022-10-13T23:10:24.688Z,12.79
2022-10-13T23:12:54.215Z,12.80
2022-10-13T23:15:23.762Z,12.79
2022-10-13T23:17:55.930Z,12.78
2022-10-13T23:20:25.487Z,12.77
2022-10-13T23:22:55.013Z,12.76
2022-10-13T23:25:24.552Z,12.74
2022-10-13T23:27:54.110Z,12.70
2022-10-13T23:30:23.694Z,12.66
2022-10-13T23:32:55.840Z,12.61
2022-10-13T23:35:25.364Z,12.52
2022-10-13T23:37:55.386Z,12.46
2022-10-13T23:40:24.927Z,12.39
2022-10-13T23:42:54.517Z,12.37
2022-10-13T23:45:24.072Z,12.38
2022-10-13T23:47:56.229Z,12.38
2022-10-13T23:50:26.266Z,12.36
2022-10-13T23:52:55.825Z,12.33
2022-10-13T23:55:25.348Z,12.34
2022-10-13T23:57:54.897Z,12.34
